createdAt,value
2018-05-06T00:01:00.668Z,71.90
2018-05-06T00:03:28.940Z,71.90
2018-05-06T00:05:57.253Z,72.60
2018-05-06T00:08:25.527Z,72.80
2018-05-06T00:10:53.694Z,72.70
2018-05-06T00:13:22.699Z,72.40
2018-05-06T00:15:50.968Z,72.40
2018-05-06T00:18:19.176Z,72.10
2018-05-06T00:20:48.832Z,72.30
2018-05-06T00:23:17.943Z,72.30
2018-05-06T00:25:46.251Z,72.30
2018-05-06T00:28:14.442Z,72.40
2018-05-06T00:30:43.406Z,72.30
2018-05-06T00:33:12.576Z,72.30
2018-05-06T00:35:40.882Z,72.30
2018-05-06T00:38:09.840Z,71.80
2018-05-06T00:40:38.050Z,71.80
2018-05-06T00:43:06.499Z,72.00
2018-05-06T00:45:34.706Z,72.10
2018-05-06T00:48:03.665Z,72.00
2018-05-06T00:50:31.866Z,72.00
2018-05-06T00:53:00.142Z,71.80
2018-05-06T00:55:29.190Z,71.80
2018-05-06T00:57:58.079Z,71.30
2018-05-06T01:00:26.298Z,71.30
2018-05-06T01:02:54.627Z,71.50
2018-05-06T01:05:22.851Z,71.60
2018-05-06T01:07:51.038Z,72.00
2018-05-06T01:10:20.006Z,71.80
2018-05-06T01:12:48.243Z,71.80
2018-05-06T01:15:16.467Z,72.00
2018-05-06T01:17:44.654Z,72.30
2018-05-06T01:20:13.734Z,72.70
2018-05-06T01:22:42.063Z,72.70
2018-05-06T01:25:10.274Z,72.70
2018-05-06T01:27:38.470Z,73.00
2018-05-06T01:30:07.454Z,73.70
2018-05-06T01:32:36.414Z,73.10
2018-05-06T01:35:04.742Z,73.10
2018-05-06T01:37:33.720Z,73.40
2018-05-06T01:40:01.924Z,73.40
2018-05-06T01:42:30.220Z,73.70
2018-05-06T01:44:58.451Z,74.00
2018-05-06T01:47:27.450Z,74.10
2018-05-06T01:49:55.654Z,74.10
2018-05-06T01:52:23.982Z,73.90
2018-05-06T01:54:52.175Z,73.90
2018-05-06T01:57:20.826Z,74.10
2018-05-06T01:59:49.027Z,74.20
2018-05-06T02:02:18.105Z,74.20
2018-05-06T02:04:46.300Z,74.60
2018-05-06T02:07:15.281Z,75.20
2018-05-06T02:09:44.243Z,74.40
2018-05-06T02:12:12.535Z,74.40
2018-05-06T02:14:40.726Z,74.30
2018-05-06T02:17:09.024Z,74.20
2018-05-06T02:19:37.982Z,74.40
2018-05-06T02:22:06.382Z,74.40
2018-05-06T02:24:35.959Z,74.80
2018-05-06T02:27:04.267Z,74.80
2018-05-06T02:29:33.225Z,74.80
2018-05-06T02:32:01.436Z,74.70
2018-05-06T02:34:30.400Z,74.70
2018-05-06T02:36:58.611Z,74.60
2018-05-06T02:39:27.609Z,75.40
2018-05-06T02:41:56.584Z,75.40
2018-05-06T02:44:25.547Z,75.60
2018-05-06T02:46:53.779Z,75.60
2018-05-06T02:49:22.741Z,76.10
2018-05-06T02:51:51.003Z,76.10
2018-05-06T02:54:19.199Z,76.20
2018-05-06T02:56:47.498Z,77.80
2018-05-06T02:59:16.442Z,77.20
2018-05-06T03:01:44.698Z,77.20
2018-05-06T03:04:12.878Z,77.00
2018-05-06T03:06:41.084Z,76.90
2018-05-06T03:09:09.291Z,77.50
2018-05-06T03:11:37.522Z,77.70
2018-05-06T03:14:05.732Z,78.00
2018-05-06T03:16:34.690Z,77.60
2018-05-06T03:19:02.906Z,77.60
2018-05-06T03:21:31.960Z,77.80
2018-05-06T03:24:00.174Z,77.80
2018-05-06T03:26:29.130Z,78.20
2018-05-06T03:28:57.346Z,78.20
2018-05-06T03:31:25.609Z,78.40
2018-05-06T03:33:54.591Z,79.00
2018-05-06T03:36:22.774Z,79.00
2018-05-06T03:38:51.754Z,79.40
2018-05-06T03:41:20.074Z,79.40
2018-05-06T03:43:48.286Z,79.20
2018-05-06T03:46:16.465Z,79.20
2018-05-06T03:48:44.715Z,79.10
2018-05-06T03:51:13.730Z,78.80
2018-05-06T03:53:41.943Z,78.70
2018-05-06T03:59:37.562Z,79.30
2018-05-06T04:05:17.734Z,79.90
2018-05-06T04:07:45.941Z,80.00
2018-05-06T04:10:14.895Z,79.90
2018-05-06T04:12:43.284Z,79.80
2018-05-06T04:15:11.498Z,80.20
2018-05-06T04:17:39.688Z,80.10
2018-05-06T04:20:08.069Z,80.10
2018-05-06T04:22:36.408Z,80.10
2018-05-06T04:25:05.380Z,80.60
2018-05-06T04:27:33.578Z,80.50
2018-05-06T04:30:01.779Z,80.80
2018-05-06T04:32:30.090Z,81.30
2018-05-06T04:34:58.295Z,80.70
2018-05-06T04:37:26.578Z,81.10
2018-05-06T04:39:54.715Z,80.70
2018-05-06T04:42:22.904Z,81.30
2018-05-06T04:44:51.143Z,81.70
2018-05-06T04:47:20.066Z,81.80
2018-05-06T04:49:48.293Z,81.50
2018-05-06T04:52:16.541Z,81.10
2018-05-06T04:54:44.758Z,81.70
2018-05-06T04:57:12.994Z,81.30
2018-05-06T04:59:41.198Z,81.20
2018-05-06T05:02:09.411Z,81.10
2018-05-06T05:04:37.637Z,81.40
2018-05-06T05:07:06.590Z,80.00
2018-05-06T05:09:34.817Z,80.00
2018-05-06T05:12:03.143Z,80.10
2018-05-06T05:14:31.363Z,79.90
2018-05-06T05:17:00.310Z,79.80
2018-05-06T05:19:28.546Z,79.80
2018-05-06T05:21:56.787Z,80.10
2018-05-06T05:24:25.775Z,80.10
2018-05-06T05:26:54.749Z,79.90
2018-05-06T05:29:22.958Z,79.90
2018-05-06T05:31:51.278Z,79.90
2018-05-06T05:34:19.529Z,80.20
2018-05-06T05:36:48.462Z,79.60
2018-05-06T05:39:16.766Z,79.60
2018-05-06T05:41:45.053Z,79.80
2018-05-06T05:44:14.015Z,79.10
2018-05-06T05:46:42.230Z,79.10
2018-05-06T05:49:11.190Z,79.00
2018-05-06T05:51:39.590Z,79.00
2018-05-06T05:54:08.554Z,77.30
2018-05-06T05:56:36.766Z,77.30
2018-05-06T05:59:05.725Z,76.30
2018-05-06T06:01:34.042Z,76.30
2018-05-06T06:04:02.227Z,77.00
2018-05-06T06:06:30.439Z,76.50
2018-05-06T06:08:58.648Z,76.40
2018-05-06T06:11:26.916Z,76.10
2018-05-06T06:13:55.886Z,75.10
2018-05-06T06:16:24.097Z,75.10
2018-05-06T06:18:53.067Z,75.10
2018-05-06T06:21:21.360Z,75.10
2018-05-06T06:23:49.637Z,75.40
2018-05-06T06:26:17.845Z,75.70
2018-05-06T06:28:46.088Z,74.60
2018-05-06T06:31:14.346Z,74.20
2018-05-06T06:33:42.561Z,75.00
2018-05-06T06:36:11.538Z,76.10
2018-05-06T06:38:39.815Z,76.10
2018-05-06T06:41:08.791Z,75.10
2018-05-06T06:43:38.486Z,75.70
2018-05-06T06:46:06.705Z,76.40
2018-05-06T06:48:35.658Z,74.80
2018-05-06T06:51:03.938Z,74.80
2018-05-06T06:53:32.150Z,74.40
2018-05-06T06:56:01.227Z,74.00
2018-05-06T06:58:30.192Z,73.50
2018-05-06T07:00:59.970Z,73.00
2018-05-06T07:03:28.166Z,72.90
2018-05-06T07:05:56.369Z,73.00
2018-05-06T07:08:24.578Z,72.50
2018-05-06T07:10:52.922Z,71.10
2018-05-06T07:13:21.158Z,69.50
2018-05-06T07:15:49.362Z,70.00
2018-05-06T07:18:18.158Z,71.20
2018-05-06T07:20:46.396Z,71.20
2018-05-06T07:23:14.618Z,70.60
2018-05-06T07:25:42.799Z,71.20
2018-05-06T07:28:11.032Z,70.90
2018-05-06T07:30:39.231Z,71.20
2018-05-06T07:33:09.890Z,70.50
2018-05-06T07:35:38.159Z,69.80
2018-05-06T07:38:06.361Z,70.00
2018-05-06T07:40:34.546Z,69.20
2018-05-06T07:43:02.762Z,68.40
2018-05-06T07:45:30.954Z,68.80
2018-05-06T07:47:59.159Z,69.60
2018-05-06T07:50:27.471Z,70.30
2018-05-06T07:52:55.683Z,68.50
2018-05-06T07:55:23.891Z,67.60
2018-05-06T07:57:52.139Z,67.10
2018-05-06T08:00:20.415Z,68.40
2018-05-06T08:02:49.412Z,68.40
2018-05-06T08:05:17.907Z,68.40
2018-05-06T08:07:46.699Z,67.30
2018-05-06T08:10:15.085Z,65.80
2018-05-06T08:12:43.307Z,66.50
2018-05-06T08:15:12.303Z,71.40
2018-05-06T08:17:40.553Z,70.50
2018-05-06T08:20:08.839Z,67.30
2018-05-06T08:22:38.943Z,65.20
2018-05-06T08:25:07.198Z,66.40
2018-05-06T08:27:35.415Z,66.90
2018-05-06T08:30:03.695Z,67.40
2018-05-06T08:32:31.887Z,67.10
2018-05-06T08:35:00.115Z,66.80
2018-05-06T08:37:28.342Z,66.60
2018-05-06T08:39:56.595Z,65.20
2018-05-06T08:42:24.779Z,64.90
2018-05-06T08:44:53.010Z,66.20
2018-05-06T08:47:21.494Z,65.90
2018-05-06T08:49:49.783Z,63.30
2018-05-06T08:52:17.970Z,63.60
2018-05-06T08:54:46.182Z,64.60
2018-05-06T08:57:14.436Z,64.30
2018-05-06T08:59:42.706Z,63.40
2018-05-06T09:02:10.893Z,61.70
2018-05-06T09:04:39.874Z,60.30
2018-05-06T09:07:08.834Z,63.80
2018-05-06T09:09:37.114Z,63.80
2018-05-06T09:12:05.302Z,61.50
2018-05-06T09:14:34.104Z,61.50
2018-05-06T09:17:03.379Z,60.30
2018-05-06T09:19:31.658Z,60.30
2018-05-06T09:21:59.928Z,59.60
2018-05-06T09:24:29.654Z,61.50
2018-05-06T09:26:58.650Z,61.60
2018-05-06T09:29:27.122Z,61.70
2018-05-06T09:31:55.314Z,60.10
2018-05-06T09:34:24.286Z,58.80
2018-05-06T09:36:52.479Z,58.70
2018-05-06T09:39:21.859Z,58.60
2018-05-06T09:41:50.162Z,59.20
2018-05-06T09:44:18.372Z,59.70
2018-05-06T09:46:46.550Z,59.60
2018-05-06T09:49:14.842Z,59.20
2018-05-06T09:51:43.044Z,57.60
2018-05-06T09:54:11.227Z,58.10
2018-05-06T09:56:39.422Z,57.40
2018-05-06T09:59:07.729Z,56.70
2018-05-06T10:01:35.931Z,58.10
2018-05-06T10:04:04.125Z,55.30
2018-05-06T10:06:32.326Z,55.20
2018-05-06T10:09:01.113Z,55.30
2018-05-06T10:11:29.372Z,54.50
2018-05-06T10:13:57.723Z,54.20
2018-05-06T10:16:25.909Z,54.10
2018-05-06T10:18:54.307Z,54.40
2018-05-06T10:21:22.523Z,53.90
2018-05-06T10:23:50.754Z,54.40
2018-05-06T10:26:18.949Z,53.90
2018-05-06T10:28:47.308Z,52.50
2018-05-06T10:31:15.523Z,51.80
2018-05-06T10:33:43.702Z,52.90
2018-05-06T10:36:11.927Z,50.50
2018-05-06T10:38:40.158Z,52.30
2018-05-06T10:41:08.360Z,50.30
2018-05-06T10:43:36.551Z,51.50
2018-05-06T10:46:04.834Z,51.00
2018-05-06T10:48:33.213Z,48.90
2018-05-06T10:51:02.002Z,50.80
2018-05-06T10:53:30.171Z,52.10
2018-05-06T10:55:59.874Z,48.70
2018-05-06T10:58:29.509Z,48.70
2018-05-06T11:00:58.077Z,49.50
2018-05-06T11:03:27.271Z,48.90
2018-05-06T11:05:55.789Z,48.10
2018-05-06T11:08:25.252Z,47.80
2018-05-06T11:10:53.571Z,47.80
2018-05-06T11:13:22.010Z,46.00
2018-05-06T11:15:51.030Z,47.40
2018-05-06T11:18:19.819Z,48.00
2018-05-06T11:20:48.860Z,49.40
2018-05-06T11:23:17.872Z,49.40
2018-05-06T11:25:47.048Z,49.60
2018-05-06T11:28:15.298Z,49.50
2018-05-06T11:30:43.471Z,47.90
2018-05-06T11:33:11.683Z,46.60
2018-05-06T11:35:40.281Z,43.80
2018-05-06T11:38:09.992Z,44.50
2018-05-06T11:40:38.664Z,45.80
2018-05-06T11:43:07.271Z,46.10
2018-05-06T11:45:36.648Z,45.40
2018-05-06T11:48:05.489Z,45.30
2018-05-06T11:50:33.642Z,45.20
2018-05-06T11:53:02.190Z,45.70
2018-05-06T11:55:30.396Z,46.80
2018-05-06T11:57:58.670Z,45.80
2018-05-06T12:00:26.871Z,45.40
2018-05-06T12:02:55.078Z,44.50
2018-05-06T12:05:23.350Z,44.60
2018-05-06T12:07:52.351Z,44.10
2018-05-06T12:10:20.553Z,44.10
2018-05-06T12:12:49.512Z,42.70
2018-05-06T12:15:17.707Z,42.70
2018-05-06T12:17:45.950Z,43.40
2018-05-06T12:20:14.135Z,43.00
2018-05-06T12:22:42.326Z,43.40
2018-05-06T12:25:11.298Z,43.40
2018-05-06T12:27:39.738Z,43.40
2018-05-06T12:30:07.959Z,42.40
2018-05-06T12:32:37.038Z,43.00
2018-05-06T12:35:05.309Z,43.00
2018-05-06T12:37:33.526Z,43.90
2018-05-06T12:40:01.978Z,44.10
2018-05-06T12:42:30.257Z,43.70
2018-05-06T12:44:58.477Z,42.20
2018-05-06T12:47:26.726Z,44.50
2018-05-06T12:49:55.694Z,42.90
2018-05-06T12:52:24.646Z,42.40
2018-05-06T12:54:52.838Z,42.40
2018-05-06T12:57:21.159Z,42.70
2018-05-06T12:59:49.739Z,42.40
2018-05-06T13:02:18.693Z,41.30
2018-05-06T13:04:46.886Z,41.30
2018-05-06T13:07:15.194Z,43.40
2018-05-06T13:09:43.395Z,41.60
2018-05-06T13:12:11.582Z,42.60
2018-05-06T13:14:39.782Z,41.30
2018-05-06T13:17:07.990Z,42.50
2018-05-06T13:19:36.959Z,42.90
2018-05-06T13:22:05.233Z,42.80
2018-05-06T13:24:33.433Z,43.60
2018-05-06T13:27:01.719Z,41.60
2018-05-06T13:29:29.910Z,41.60
2018-05-06T13:31:58.088Z,41.70
2018-05-06T13:34:26.301Z,44.00
2018-05-06T13:36:54.514Z,42.90
2018-05-06T13:39:23.471Z,41.80
2018-05-06T13:41:51.639Z,41.80
2018-05-06T13:44:19.834Z,40.80
2018-05-06T13:46:48.149Z,41.50
2018-05-06T13:49:16.362Z,42.70
2018-05-06T13:51:44.555Z,41.50
2018-05-06T13:54:12.718Z,41.00
2018-05-06T13:56:40.970Z,40.30
2018-05-06T13:59:09.143Z,41.60
2018-05-06T14:01:37.364Z,42.00
2018-05-06T14:04:06.306Z,40.50
2018-05-06T14:06:34.756Z,40.50
2018-05-06T14:09:03.098Z,41.30
2018-05-06T14:11:31.283Z,42.10
2018-05-06T14:14:00.214Z,38.80
2018-05-06T14:16:28.530Z,38.10
2018-05-06T14:18:56.888Z,39.00
2018-05-06T14:21:25.191Z,38.10
2018-05-06T14:23:53.415Z,40.50
2018-05-06T14:26:21.702Z,39.50
2018-05-06T14:28:49.922Z,40.60
2018-05-06T14:31:18.104Z,39.80
2018-05-06T14:33:47.055Z,39.40
2018-05-06T14:36:15.318Z,39.40
2018-05-06T14:38:43.502Z,39.80
2018-05-06T14:41:11.686Z,38.40
2018-05-06T14:43:39.863Z,38.50
2018-05-06T14:49:03.366Z,38.60
2018-05-06T14:51:31.566Z,37.90
2018-05-06T14:53:59.740Z,39.40
2018-05-06T14:56:28.704Z,39.70
2018-05-06T14:58:56.862Z,39.60
2018-05-06T15:01:25.051Z,39.70
2018-05-06T15:03:53.227Z,39.40
2018-05-06T15:06:21.398Z,40.20
2018-05-06T15:08:49.596Z,40.70
2018-05-06T15:11:17.758Z,39.90
2018-05-06T15:13:45.947Z,40.90
2018-05-06T15:16:14.153Z,39.50
2018-05-06T15:18:42.334Z,40.30
2018-05-06T15:21:10.512Z,39.10
2018-05-06T15:23:38.690Z,39.70
2018-05-06T15:26:06.962Z,40.00
2018-05-06T15:28:35.162Z,39.30
2018-05-06T15:31:03.334Z,39.90
2018-05-06T15:33:31.533Z,39.90
2018-05-06T15:35:59.726Z,40.60
2018-05-06T15:38:29.295Z,40.40
2018-05-06T15:40:57.467Z,40.40
2018-05-06T15:43:25.659Z,38.90
2018-05-06T15:45:53.938Z,39.70
2018-05-06T15:48:22.114Z,40.20
2018-05-06T15:50:50.283Z,39.00
2018-05-06T15:53:18.492Z,38.70
2018-05-06T15:55:46.762Z,38.90
2018-05-06T15:58:15.716Z,41.40
2018-05-06T16:00:43.885Z,41.40
2018-05-06T16:03:24.890Z,39.70
2018-05-06T16:05:53.171Z,39.10
2018-05-06T16:08:22.126Z,39.30
2018-05-06T16:10:50.294Z,39.30
2018-05-06T16:13:18.479Z,38.70
2018-05-06T16:15:46.707Z,39.20
2018-05-06T16:18:14.898Z,40.00
2018-05-06T16:20:43.130Z,40.90
2018-05-06T16:23:12.104Z,39.60
2018-05-06T16:25:41.090Z,40.00
2018-05-06T16:28:09.261Z,40.00
2018-05-06T16:30:37.475Z,40.20
2018-05-06T16:33:06.741Z,43.90
2018-05-06T16:35:34.986Z,43.60
2018-05-06T16:38:03.163Z,40.10
2018-05-06T16:40:31.362Z,41.90
2018-05-06T16:42:59.535Z,41.00
2018-05-06T16:45:27.849Z,43.50
2018-05-06T16:47:56.038Z,42.10
2018-05-06T16:50:24.238Z,43.50
2018-05-06T16:52:52.410Z,42.40
2018-05-06T16:55:20.679Z,43.20
2018-05-06T16:57:48.900Z,42.60
2018-05-06T17:00:17.095Z,43.50
2018-05-06T17:02:46.035Z,42.20
2018-05-06T17:05:14.270Z,42.10
2018-05-06T17:07:42.538Z,41.10
2018-05-06T17:10:11.506Z,39.50
2018-05-06T17:12:39.679Z,39.40
2018-05-06T17:15:07.919Z,40.00
2018-05-06T17:17:36.086Z,39.70
2018-05-06T17:20:11.903Z,39.60
2018-05-06T17:22:40.072Z,39.30
2018-05-06T17:25:08.296Z,39.30
2018-05-06T17:27:36.471Z,42.00
2018-05-06T17:30:04.828Z,40.00
2018-05-06T17:32:33.793Z,39.60
2018-05-06T17:35:02.053Z,39.60
2018-05-06T17:37:30.222Z,39.60
2018-05-06T17:39:58.422Z,39.70
2018-05-06T17:42:26.613Z,40.80
2018-05-06T17:44:54.960Z,41.60
2018-05-06T17:47:23.146Z,40.20
2018-05-06T17:49:52.078Z,39.80
2018-05-06T17:52:20.278Z,39.80
2018-05-06T17:54:48.523Z,40.40
2018-05-06T17:57:16.711Z,40.90
2018-05-06T17:59:44.882Z,40.70
2018-05-06T18:02:13.161Z,41.10
2018-05-06T18:04:41.555Z,40.60
2018-05-06T18:07:09.753Z,41.90
2018-05-06T18:09:37.926Z,42.50
2018-05-06T18:12:06.142Z,42.00
2018-05-06T18:14:34.310Z,42.70
2018-05-06T18:17:02.494Z,43.30
2018-05-06T18:19:30.858Z,42.40
2018-05-06T18:21:59.807Z,43.10
2018-05-06T18:24:27.990Z,43.00
2018-05-06T18:26:56.190Z,43.30
2018-05-06T18:29:25.138Z,45.00
2018-05-06T18:31:53.346Z,45.00
2018-05-06T18:34:21.682Z,46.30
2018-05-06T18:36:49.878Z,47.20
2018-05-06T18:39:18.070Z,46.70
2018-05-06T18:41:46.260Z,47.00
2018-05-06T18:44:14.487Z,47.10
2018-05-06T18:46:42.732Z,47.10
2018-05-06T18:49:10.864Z,48.40
2018-05-06T18:51:39.096Z,50.40
2018-05-06T18:54:07.356Z,51.10
2018-05-06T18:56:35.582Z,50.30
2018-05-06T18:59:03.779Z,49.90
2018-05-06T19:01:32.720Z,51.50
2018-05-06T19:04:00.992Z,51.40
2018-05-06T19:06:29.162Z,52.40
2018-05-06T19:08:57.954Z,52.30
2018-05-06T19:11:26.127Z,53.10
2018-05-06T19:13:54.443Z,52.80
2018-05-06T19:16:22.639Z,53.20
2018-05-06T19:18:50.834Z,53.40
2018-05-06T19:21:19.037Z,54.80
2018-05-06T19:23:47.546Z,53.80
2018-05-06T19:26:17.264Z,54.10
2018-05-06T19:28:45.447Z,54.10
2018-05-06T19:31:14.411Z,54.20
2018-05-06T19:33:42.762Z,54.20
2018-05-06T19:36:10.984Z,55.60
2018-05-06T19:38:39.256Z,56.10
2018-05-06T19:41:07.438Z,55.30
2018-05-06T19:43:36.638Z,55.00
2018-05-06T19:46:04.825Z,55.60
2018-05-06T19:48:33.790Z,53.90
2018-05-06T19:51:02.077Z,53.90
2018-05-06T19:53:31.180Z,55.40
2018-05-06T19:56:00.131Z,56.20
2018-05-06T19:58:28.333Z,56.20
2018-05-06T20:00:58.007Z,55.70
2018-05-06T20:03:26.288Z,55.80
2018-05-06T20:05:54.463Z,55.20
2018-05-06T20:08:22.646Z,55.90
2018-05-06T20:10:50.814Z,55.60
2018-05-06T20:13:19.183Z,55.30
2018-05-06T20:15:47.708Z,54.40
2018-05-06T20:18:15.898Z,54.90
2018-05-06T20:20:44.834Z,52.60
2018-05-06T20:23:13.122Z,52.50
2018-05-06T20:25:41.321Z,51.90
2018-05-06T20:28:11.015Z,49.80
2018-05-06T20:30:39.178Z,49.80
2018-05-06T20:33:08.194Z,47.70
2018-05-06T20:35:36.366Z,47.40
2018-05-06T20:38:04.574Z,46.80
2018-05-06T20:40:33.550Z,45.10
2018-05-06T20:43:01.754Z,45.10
2018-05-06T20:45:29.952Z,45.50
2018-05-06T20:47:58.130Z,45.60
2018-05-06T20:50:26.338Z,45.80
2018-05-06T20:52:54.557Z,45.00
2018-05-06T20:55:22.830Z,44.00
2018-05-06T20:57:50.919Z,43.30
2018-05-06T21:00:19.115Z,43.80
2018-05-06T21:02:47.457Z,43.00
2018-05-06T21:05:15.722Z,42.70
2018-05-06T21:07:43.840Z,42.40
2018-05-06T21:10:12.043Z,42.90
2018-05-06T21:12:40.253Z,43.80
2018-05-06T21:15:08.463Z,41.90
2018-05-06T21:17:36.639Z,41.80
2018-05-06T21:20:04.827Z,42.00
2018-05-06T21:22:33.018Z,41.80
2018-05-06T21:25:02.004Z,42.80
2018-05-06T21:27:30.285Z,42.80
2018-05-06T21:29:58.467Z,43.60
2018-05-06T21:32:26.662Z,44.10
2018-05-06T21:34:55.614Z,41.90
2018-05-06T21:37:24.203Z,41.90
2018-05-06T21:39:52.387Z,41.80
2018-05-06T21:42:20.560Z,41.80
2018-05-06T21:44:50.327Z,42.50
2018-05-06T21:47:18.474Z,42.40
2018-05-06T21:49:46.688Z,42.20
2018-05-06T21:52:14.945Z,41.50
2018-05-06T21:54:43.143Z,41.00
2018-05-06T21:57:11.339Z,40.80
2018-05-06T21:59:39.534Z,41.50
2018-05-06T22:02:07.757Z,41.30
2018-05-06T22:04:35.971Z,41.00
2018-05-06T22:07:05.682Z,41.50
2018-05-06T22:09:33.858Z,41.50
2018-05-06T22:12:02.164Z,41.90
2018-05-06T22:14:31.118Z,43.00
2018-05-06T22:16:59.287Z,42.90
2018-05-06T22:19:27.474Z,42.40
2018-05-06T22:21:55.682Z,42.90
2018-05-06T22:24:23.902Z,42.90
2018-05-06T22:26:52.066Z,44.20
2018-05-06T22:29:20.273Z,44.00
2018-05-06T22:31:48.514Z,46.10
2018-05-06T22:34:16.778Z,46.70
2018-05-06T22:36:45.689Z,48.40
2018-05-06T22:39:13.889Z,48.40
2018-05-06T22:41:42.153Z,49.10
2018-05-06T22:44:10.298Z,49.30
2018-05-06T22:46:38.606Z,48.80
2018-05-06T22:49:08.302Z,46.30
2018-05-06T22:51:37.314Z,48.00
2018-05-06T22:54:05.491Z,48.00
2018-05-06T22:56:34.454Z,47.10
2018-05-06T22:59:02.650Z,47.10
2018-05-06T23:01:30.900Z,48.80
2018-05-06T23:03:59.125Z,51.00
2018-05-06T23:06:28.075Z,52.00
2018-05-06T23:08:56.242Z,51.20
2018-05-06T23:11:24.515Z,51.70
2018-05-06T23:13:52.695Z,52.40
2018-05-06T23:16:20.948Z,53.00
2018-05-06T23:18:49.874Z,54.80
2018-05-06T23:21:18.127Z,54.80
2018-05-06T23:23:46.372Z,54.20
2018-05-06T23:26:14.618Z,53.30
2018-05-06T23:28:44.314Z,54.10
2018-05-06T23:31:12.522Z,54.10
2018-05-06T23:33:41.494Z,56.00
2018-05-06T23:36:09.691Z,55.90
2018-05-06T23:38:38.638Z,55.00
2018-05-06T23:41:06.925Z,55.00
2018-05-06T23:43:35.090Z,55.30
2018-05-06T23:46:03.274Z,55.70
2018-05-06T23:48:31.445Z,54.60
2018-05-06T23:50:59.967Z,55.50
2018-05-06T23:53:28.907Z,56.40
2018-05-06T23:55:57.105Z,56.50
2018-05-06T23:58:25.271Z,56.40
